Time;durP1;ratioP1;P1;durP2;ratioP2;P2;SDS_P1;SDS_P2;PMS_P1;PMS_P2;Temp;Humidity;BMP_temperature;BMP_pressure;BME280_temperature;BME280_humidity;BME280_pressure;Samples;Min_cycle;Max_cycle;Signal;HPM_P1;HPM_P2
2022/10/09 00:01:19;;;;;;;9.85;5.97;;;;;;;9.19;78.92;99064.78;4926978;29;20047;-83
2022/10/09 00:03:49;;;;;;;10.63;5.50;;;;;;;9.10;79.05;99048.28;4927059;29;20055;-82
2022/10/09 00:06:24;;;;;;;11.83;5.90;;;;;;;9.16;78.74;99060.69;4926553;29;20082;-83
2022/10/09 00:08:51;;;;;;;8.63;5.85;;;;;;;9.13;78.89;99058.41;4927142;29;20303;-82
2022/10/09 00:11:23;;;;;;;9.98;5.47;;;;;;;8.93;78.67;99050.09;4927940;29;20051;-82
2022/10/09 00:13:51;;;;;;;7.03;5.25;;;;;;;9.00;79.62;99071.22;4926826;29;20048;-82
2022/10/09 00:16:20;;;;;;;7.30;4.90;;;;;;;8.96;79.01;99069.91;4926685;29;20047;-83
2022/10/09 00:18:48;;;;;;;10.32;5.68;;;;;;;8.85;78.50;99058.78;4926043;29;20036;-83
2022/10/09 00:21:27;;;;;;;9.05;5.28;;;;;;;8.95;78.86;99066.47;4926716;29;20040;-83
2022/10/09 00:23:58;;;;;;;9.27;5.15;;;;;;;8.92;78.83;99064.16;4927537;29;20460;-82
2022/10/09 00:26:25;;;;;;;7.22;5.38;;;;;;;8.93;78.67;99057.94;4930767;29;20058;-82
2022/10/09 00:28:54;;;;;;;7.60;5.28;;;;;;;8.85;78.93;99052.72;4926754;29;20039;-82
2022/10/09 00:31:21;;;;;;;8.10;5.50;;;;;;;8.77;79.28;99064.03;4925247;29;20058;-83
2022/10/09 00:33:48;;;;;;;6.78;5.38;;;;;;;8.75;79.73;99063.34;4925624;29;20098;-83
2022/10/09 00:36:22;;;;;;;8.95;5.82;;;;;;;8.74;79.53;99066.94;4929532;29;20039;-82
2022/10/09 00:38:49;;;;;;;9.43;5.78;;;;;;;8.74;79.33;99058.28;4929009;29;20377;-82
2022/10/09 00:41:28;;;;;;;9.25;6.07;;;;;;;8.75;79.17;99050.28;4925917;29;20404;-82
2022/10/09 00:44:02;;;;;;;10.20;5.75;;;;;;;8.71;79.44;99048.97;4926401;29;20044;-82
2022/10/09 00:46:37;;;;;;;11.98;6.13;;;;;;;8.59;79.06;99042.44;4925513;29;20162;-82
2022/10/09 00:49:22;;;;;;;8.85;6.15;;;;;;;8.69;79.37;99048.31;4926482;29;20047;-82
2022/10/09 00:51:51;;;;;;;12.40;6.20;;;;;;;8.71;79.08;99051.59;4924745;29;20118;-82
2022/10/09 00:54:24;;;;;;;11.27;5.53;;;;;;;8.70;79.20;99043.94;4944030;28;20058;-82
2022/10/09 00:56:51;;;;;;;10.57;6.18;;;;;;;8.56;79.60;99040.97;4924588;29;20480;-82
2022/10/09 00:59:18;;;;;;;7.80;5.82;;;;;;;8.59;79.86;99039.84;4926090;29;20392;-83
2022/10/09 01:01:45;;;;;;;11.32;6.13;;;;;;;8.65;79.77;99047.03;4925063;29;20058;-82
2022/10/09 01:04:13;;;;;;;7.35;5.97;;;;;;;8.67;79.32;99039.81;4926177;29;20055;-83
2022/10/09 01:06:55;;;;;;;7.80;5.65;;;;;;;8.69;79.17;99031.81;4927044;29;20047;-83
2022/10/09 01:09:36;;;;;;;7.55;5.35;;;;;;;8.67;78.96;99034.59;4925207;29;20035;-82
2022/10/09 01:12:18;;;;;;;8.35;5.63;;;;;;;8.63;79.21;99028.03;4927222;29;20055;-82
2022/10/09 01:15:01;;;;;;;9.07;6.18;;;;;;;8.49;79.18;99034.75;4925336;29;20050;-82
2022/10/09 01:18:13;;;;;;;6.28;5.50;;;;;;;8.55;79.24;99036.72;4926105;29;20512;-82
2022/10/09 01:20:51;;;;;;;8.13;5.03;;;;;;;8.60;79.34;99033.63;4909408;29;20060;-83
2022/10/09 01:23:53;;;;;;;9.68;5.85;;;;;;;8.57;79.14;99034.75;4926007;29;20059;-83
2022/10/09 01:27:04;;;;;;;8.30;5.93;;;;;;;8.50;78.96;99031.16;4926660;29;20070;-82
2022/10/09 01:29:45;;;;;;;9.25;5.40;;;;;;;8.43;79.05;99026.75;4926359;29;20047;-82
2022/10/09 01:32:18;;;;;;;11.02;5.38;;;;;;;8.49;79.25;99034.75;4955995;28;20055;-83
2022/10/09 01:34:48;;;;;;;9.95;5.93;;;;;;;8.40;78.83;99017.44;4935328;29;20044;-82
2022/10/09 01:37:18;;;;;;;10.32;5.78;;;;;;;8.44;79.17;99023.16;4924879;29;20046;-83
2022/10/09 01:39:47;;;;;;;8.30;6.00;;;;;;;8.42;78.97;99019.91;4925789;29;20055;-83
2022/10/09 01:42:17;;;;;;;6.90;5.28;;;;;;;8.40;78.89;99021.88;4923259;29;20036;-83
2022/10/09 01:44:44;;;;;;;6.85;5.57;;;;;;;8.33;79.06;99022.47;4925917;29;20048;-82
2022/10/09 01:47:17;;;;;;;7.65;4.70;;;;;;;8.17;79.08;99026.88;4925292;29;20048;-83
2022/10/09 01:50:05;;;;;;;9.88;5.75;;;;;;;8.21;79.71;99028.97;4923663;29;20500;-83
2022/10/09 01:52:48;;;;;;;7.38;5.57;;;;;;;8.20;79.40;99022.13;4939777;29;20052;-82
2022/10/09 01:55:32;;;;;;;8.73;5.63;;;;;;;8.11;79.67;99023.09;4926656;29;20046;-83
2022/10/09 01:58:28;;;;;;;10.27;5.78;;;;;;;8.14;80.05;99011.50;4925471;29;20539;-83
2022/10/09 02:01:04;;;;;;;8.20;5.57;;;;;;;8.16;79.04;99022.63;4925431;29;20044;-82
2022/10/09 02:03:35;;;;;;;6.85;5.07;;;;;;;7.99;79.09;99008.72;4928055;29;20126;-82
2022/10/09 02:06:06;;;;;;;9.27;5.70;;;;;;;8.02;79.29;99008.38;4925346;29;20043;-82
2022/10/09 02:08:38;;;;;;;10.18;5.80;;;;;;;8.06;79.13;99004.47;4925726;29;20052;-82
2022/10/09 02:11:06;;;;;;;7.60;5.97;;;;;;;8.08;79.14;99005.13;4930660;29;20040;-82
2022/10/09 02:13:34;;;;;;;10.20;5.85;;;;;;;7.88;77.82;98998.56;4929027;29;20693;-82
2022/10/09 02:16:25;;;;;;;7.57;5.40;;;;;;;7.83;79.21;99003.44;4943163;29;20089;-82
2022/10/09 02:19:16;;;;;;;7.05;5.05;;;;;;;7.58;79.05;99005.19;4929581;29;20469;-82
2022/10/09 02:21:56;;;;;;;8.33;5.63;;;;;;;7.14;81.62;98998.31;4929429;29;20052;-83
2022/10/09 02:24:24;;;;;;;6.47;5.60;;;;;;;6.94;82.81;99002.09;4928753;29;20067;-83
2022/10/09 02:26:55;;;;;;;6.85;5.15;;;;;;;7.13;83.64;99006.28;4929539;29;20696;-83
2022/10/09 02:29:21;;;;;;;6.60;5.50;;;;;;;7.22;83.51;99003.56;4928132;29;20040;-83
2022/10/09 02:31:49;;;;;;;5.72;5.13;;;;;;;7.21;82.10;99001.94;4927939;29;20507;-82
2022/10/09 02:34:18;;;;;;;6.50;5.50;;;;;;;6.97;82.18;98992.19;4943762;29;20539;-83
2022/10/09 02:36:46;;;;;;;6.30;5.40;;;;;;;7.11;82.65;99003.81;4927674;29;20067;-82
2022/10/09 02:39:13;;;;;;;7.72;5.50;;;;;;;6.96;82.62;99010.59;4926733;29;20036;-82
2022/10/09 02:41:40;;;;;;;6.72;6.05;;;;;;;6.80;83.50;99011.31;4927530;29;20047;-83
2022/10/09 02:44:07;;;;;;;6.80;5.43;;;;;;;6.71;84.25;99007.81;4928352;29;20653;-82
2022/10/09 02:46:34;;;;;;;6.72;5.30;;;;;;;6.77;84.47;99005.56;4925988;29;20042;-82
2022/10/09 02:49:01;;;;;;;5.95;5.25;;;;;;;6.90;84.18;99001.59;4927368;29;20039;-82
2022/10/09 02:51:28;;;;;;;7.22;5.30;;;;;;;6.84;82.78;99004.00;4927822;29;20122;-82
2022/10/09 02:53:55;;;;;;;5.43;4.85;;;;;;;6.56;82.83;98985.06;4942229;29;20068;-82
2022/10/09 02:56:22;;;;;;;6.22;5.25;;;;;;;6.55;83.23;99002.50;4927480;29;20119;-82
2022/10/09 02:58:49;;;;;;;5.97;5.07;;;;;;;6.62;83.23;99007.94;4927851;29;20515;-82
2022/10/09 03:01:16;;;;;;;8.15;5.35;;;;;;;6.58;82.79;99002.19;4942295;29;20046;-82
2022/10/09 03:03:43;;;;;;;7.13;5.47;;;;;;;6.43;83.03;98995.91;4927797;29;20072;-83
2022/10/09 03:06:14;;;;;;;8.05;5.60;;;;;;;6.38;84.45;99000.75;4927822;29;20132;-82
2022/10/09 03:08:46;;;;;;;10.23;5.80;;;;;;;6.38;84.60;99000.75;4938431;29;20044;-82
2022/10/09 03:11:16;;;;;;;6.50;5.57;;;;;;;6.51;83.80;99019.41;4928714;29;20050;-82
2022/10/09 03:13:43;;;;;;;7.82;5.90;;;;;;;6.56;83.53;99009.34;4926090;29;20052;-90
2022/10/09 03:16:24;;;;;;;7.85;5.15;;;;;;;6.70;83.43;99011.41;4930485;29;20055;-91
2022/10/09 03:18:52;;;;;;;6.88;5.35;;;;;;;6.77;82.99;99014.22;4921603;29;20051;-91
2022/10/09 03:21:22;;;;;;;9.80;5.70;;;;;;;6.67;81.88;99016.13;4927161;29;20046;-91
2022/10/09 03:23:51;;;;;;;11.18;5.47;;;;;;;6.59;82.17;99009.03;4934208;29;20044;-90
2022/10/09 03:26:22;;;;;;;6.32;5.47;;;;;;;6.60;82.85;99015.91;4935194;29;20058;-91
2022/10/09 03:28:51;;;;;;;7.15;5.65;;;;;;;6.67;82.71;99014.31;4933269;29;20051;-92
2022/10/09 03:31:22;;;;;;;6.93;5.18;;;;;;;6.70;82.24;99016.59;4949912;29;20051;-91
2022/10/09 03:34:10;;;;;;;8.07;5.40;;;;;;;6.64;81.64;98996.38;4944901;28;20496;-90
2022/10/09 03:36:37;;;;;;;8.70;5.22;;;;;;;6.53;81.98;98999.22;4930009;29;20050;-90
2022/10/09 03:39:04;;;;;;;7.65;5.57;;;;;;;6.53;82.67;99007.03;4915515;29;20588;-91
2022/10/09 03:41:31;;;;;;;5.88;5.00;;;;;;;6.56;82.07;99001.53;4916283;29;20425;-91
2022/10/09 03:43:58;;;;;;;8.85;6.00;;;;;;;6.69;82.50;99001.13;4931923;29;20048;-92
2022/10/09 03:46:24;;;;;;;7.00;5.28;;;;;;;6.79;81.55;99006.25;4948371;29;20047;-92
2022/10/09 03:48:51;;;;;;;6.97;5.35;;;;;;;6.89;80.98;99020.00;4921143;29;20484;-92
2022/10/09 03:51:18;;;;;;;6.20;5.22;;;;;;;6.87;80.27;99007.13;4947923;29;20485;-91
2022/10/09 03:53:44;;;;;;;5.15;4.40;;;;;;;6.94;80.17;99007.31;4936187;29;20048;-92
2022/10/09 03:56:11;;;;;;;7.22;4.50;;;;;;;7.02;79.76;99014.38;4935572;29;20385;-92
2022/10/09 03:58:37;;;;;;;7.55;5.32;;;;;;;6.97;79.55;99012.25;4927617;29;20054;-92
2022/10/09 04:01:04;;;;;;;7.05;5.07;;;;;;;6.99;79.60;99023.31;4936115;29;20047;-91
2022/10/09 04:03:31;;;;;;;6.15;4.85;;;;;;;6.88;78.92;99010.53;4947865;29;20043;-91
2022/10/09 04:05:58;;;;;;;7.05;5.47;;;;;;;6.93;79.96;99016.13;4935296;29;20052;-91
2022/10/09 04:08:24;;;;;;;6.03;4.88;;;;;;;6.94;79.32;99022.97;4925801;29;20051;-91
2022/10/09 04:10:58;;;;;;;6.38;4.97;;;;;;;6.55;80.20;99002.50;4934349;29;20062;-90
2022/10/09 04:13:26;;;;;;;7.90;4.88;;;;;;;6.44;81.12;99006.16;4965467;28;20048;-90
2022/10/09 04:15:54;;;;;;;7.50;5.30;;;;;;;6.31;82.66;99000.53;4916473;29;20040;-90
2022/10/09 04:18:22;;;;;;;8.40;5.10;;;;;;;6.29;82.36;99007.66;4919266;29;20476;-91
2022/10/09 04:20:52;;;;;;;9.75;5.38;;;;;;;6.27;82.48;99008.78;4927853;29;20472;-91
2022/10/09 04:23:24;;;;;;;8.20;4.85;;;;;;;6.09;83.05;99000.97;4931110;29;20077;-90
2022/10/09 04:25:53;;;;;;;6.63;5.35;;;;;;;5.89;83.51;99005.47;4942219;29;20048;-90
2022/10/09 04:28:22;;;;;;;7.88;5.32;;;;;;;5.77;84.23;99007.47;4929117;29;20076;-92
2022/10/09 04:30:49;;;;;;;7.28;5.32;;;;;;;5.54;85.34;99001.84;4934626;29;20079;-91
2022/10/09 04:33:16;;;;;;;8.05;5.40;;;;;;;5.35;86.93;99014.94;4922744;29;20048;-82
2022/10/09 04:35:45;;;;;;;7.70;5.35;;;;;;;5.41;87.35;99005.75;4939710;29;20044;-82
2022/10/09 04:38:13;;;;;;;7.22;5.22;;;;;;;5.58;87.32;99002.38;4925949;29;20044;-81
2022/10/09 04:40:40;;;;;;;7.15;5.53;;;;;;;5.75;85.81;99000.75;4935383;29;20411;-92
2022/10/09 04:43:07;;;;;;;7.70;5.15;;;;;;;5.95;84.92;99004.91;4929064;29;20047;-82
2022/10/09 04:45:39;;;;;;;6.70;4.97;;;;;;;6.08;83.11;99002.75;4926721;29;20074;-82
2022/10/09 04:48:06;;;;;;;6.05;4.80;;;;;;;6.24;82.83;99003.84;4939978;29;20058;-82
2022/10/09 04:50:33;;;;;;;6.78;4.78;;;;;;;6.23;81.38;98997.00;4925179;29;20054;-82
2022/10/09 04:52:59;;;;;;;7.50;5.05;;;;;;;6.22;82.36;99001.41;4926157;29;20051;-81
2022/10/09 04:55:26;;;;;;;6.88;5.20;;;;;;;6.22;82.34;99005.81;4925064;29;20048;-81
2022/10/09 04:57:53;;;;;;;6.57;5.20;;;;;;;6.16;81.55;99007.22;4923208;29;20178;-82
2022/10/09 05:00:19;;;;;;;8.00;5.50;;;;;;;5.96;81.46;99003.94;4924823;29;20043;-81
2022/10/09 05:02:46;;;;;;;6.22;4.80;;;;;;;5.89;82.02;99000.28;4925248;29;20054;-82
2022/10/09 05:05:13;;;;;;;5.85;4.70;;;;;;;6.07;83.10;99008.94;4924364;29;20146;-81
2022/10/09 05:07:39;;;;;;;7.53;4.97;;;;;;;6.13;82.14;98995.31;4924230;29;20051;-81
2022/10/09 05:10:07;;;;;;;9.43;5.13;;;;;;;6.26;81.78;99002.75;4925133;29;20035;-81
2022/10/09 05:12:33;;;;;;;8.40;5.07;;;;;;;6.29;80.78;99006.84;4926680;29;20054;-81
2022/10/09 05:15:00;;;;;;;6.78;5.03;;;;;;;6.24;80.76;99015.13;4925573;29;20050;-82
2022/10/09 05:17:26;;;;;;;5.28;4.40;;;;;;;6.02;79.69;99011.16;4925613;29;20449;-81
2022/10/09 05:19:53;;;;;;;5.93;4.60;;;;;;;5.87;80.77;99017.81;4924866;29;20040;-81
2022/10/09 05:22:20;;;;;;;4.88;4.18;;;;;;;5.92;81.37;99017.41;4925883;29;20979;-82
2022/10/09 05:24:46;;;;;;;5.20;4.63;;;;;;;5.92;80.91;99015.63;4925008;29;20487;-82
2022/10/09 05:27:13;;;;;;;4.93;4.20;;;;;;;5.98;80.73;99015.03;4925196;29;20048;-82
2022/10/09 05:29:40;;;;;;;6.43;4.72;;;;;;;5.99;80.19;99021.88;4925290;29;21028;-81
2022/10/09 05:32:07;;;;;;;5.18;4.50;;;;;;;5.87;79.72;99025.63;4923608;29;20126;-82
2022/10/09 05:34:34;;;;;;;6.53;4.47;;;;;;;5.62;81.00;99014.94;4919114;29;20052;-81
2022/10/09 05:37:01;;;;;;;5.28;4.50;;;;;;;5.60;81.11;99024.69;4923786;29;20119;-82
2022/10/09 05:39:27;;;;;;;6.70;4.90;;;;;;;5.54;81.56;99034.84;4925422;29;20037;-82
2022/10/09 05:41:54;;;;;;;6.93;5.25;;;;;;;5.33;81.55;99025.47;4925093;29;20044;-82
2022/10/09 05:44:21;;;;;;;4.97;4.30;;;;;;;5.38;82.08;99032.88;4927732;29;20048;-82
2022/10/09 05:46:48;;;;;;;6.18;4.53;;;;;;;5.27;82.19;99031.25;4929405;29;20115;-82
2022/10/09 05:49:14;;;;;;;6.07;4.50;;;;;;;5.29;82.47;99033.75;4912969;29;20135;-81
2022/10/09 05:51:41;;;;;;;5.50;4.68;;;;;;;5.40;83.00;99028.34;4928634;29;20043;-81
2022/10/09 05:54:14;;;;;;;6.15;4.43;;;;;;;5.61;83.77;99034.13;4930345;29;20047;-81
2022/10/09 05:56:42;;;;;;;7.25;4.80;;;;;;;5.77;83.52;99037.88;4930609;29;20047;-81
2022/10/09 05:59:18;;;;;;;5.65;4.95;;;;;;;5.88;83.16;99038.50;4929049;29;20142;-81
2022/10/09 06:01:49;;;;;;;5.25;4.70;;;;;;;5.94;82.24;99028.47;4929883;29;20119;-81
2022/10/09 06:04:18;;;;;;;;;;;;;;;6.01;80.90;99030.38;4928079;29;20047;-82
2022/10/09 06:06:47;;;;;;;5.90;4.32;;;;;;;6.05;80.43;99034.28;4929236;29;19923;-81
2022/10/09 06:09:17;;;;;;;5.85;4.28;;;;;;;6.03;79.32;99023.22;4926845;29;20050;-81
2022/10/09 06:11:44;;;;;;;4.80;4.30;;;;;;;6.08;78.66;99031.41;4939098;29;20044;-81
2022/10/09 06:14:12;;;;;;;4.35;3.95;;;;;;;6.06;78.57;99035.97;4938979;29;20484;-81
2022/10/09 06:16:44;;;;;;;6.00;4.88;;;;;;;6.03;79.14;99038.03;4927884;29;20407;-81
2022/10/09 06:19:14;;;;;;;20.45;4.72;;;;;;;5.60;79.66;99036.88;4928957;29;20060;-81
2022/10/09 06:21:42;;;;;;;5.60;4.22;;;;;;;5.29;81.86;99034.56;4928457;29;20044;-82
2022/10/09 06:24:22;;;;;;;5.63;4.35;;;;;;;5.30;82.76;99030.16;4929870;29;20040;-81
2022/10/09 06:26:56;;;;;;;5.22;4.25;;;;;;;5.41;82.22;99034.38;4960384;28;20043;-81
2022/10/09 06:29:23;;;;;;;4.82;4.13;;;;;;;5.43;81.97;99033.25;4927252;29;20044;-81
2022/10/09 06:31:49;;;;;;;5.18;4.68;;;;;;;5.36;82.56;99040.81;4927123;29;20064;-82
2022/10/09 06:34:16;;;;;;;11.27;4.70;;;;;;;5.29;82.73;99046.75;4927929;29;20039;-90
2022/10/09 06:36:43;;;;;;;5.50;4.60;;;;;;;5.31;83.32;99032.63;4932655;29;20054;-91
2022/10/09 06:39:10;;;;;;;7.32;4.82;;;;;;;5.52;82.63;99037.63;4937287;29;20077;-92
2022/10/09 06:41:36;;;;;;;16.83;5.15;;;;;;;5.26;83.62;99034.00;4937605;29;20050;-91
2022/10/09 06:44:07;;;;;;;16.70;4.95;;;;;;;5.22;85.06;99045.69;4936071;29;20138;-91
2022/10/09 06:46:40;;;;;;;12.70;8.63;;;;;;;5.39;84.00;99039.69;4936265;29;20130;-92
2022/10/09 06:49:09;;;;;;;13.30;5.80;;;;;;;5.17;85.42;99029.69;4935597;29;20102;-91
2022/10/09 06:51:36;;;;;;;22.65;5.70;;;;;;;5.00;86.75;99039.84;4946060;28;20067;-92
2022/10/09 06:54:11;;;;;;;54.60;7.20;;;;;;;4.87;87.05;99047.13;4945207;29;20054;-90
2022/10/09 06:56:38;;;;;;;8.55;6.07;;;;;;;5.24;88.03;99041.16;4934915;29;20054;-89
2022/10/09 06:59:06;;;;;;;7.72;4.90;;;;;;;5.40;86.17;99037.91;4934662;29;20067;-93
2022/10/09 07:01:33;;;;;;;18.83;6.03;;;;;;;5.49;85.27;99040.47;4945011;29;20130;-90
2022/10/09 07:04:09;;;;;;;8.32;5.07;;;;;;;5.57;85.38;99043.19;4946241;29;20144;-89
2022/10/09 07:06:40;;;;;;;14.93;4.97;;;;;;;5.63;84.34;99034.78;4931830;29;20048;-90
2022/10/09 07:09:10;;;;;;;6.22;4.63;;;;;;;5.74;84.32;99035.56;4930070;28;20058;-92
2022/10/09 07:13:41;;;;;;;6.55;5.20;;;;;;;6.25;82.69;99050.63;5137417;27;20406;-91
2022/10/09 07:16:09;;;;;;;4.97;4.38;;;;;;;6.38;81.43;99039.81;5095415;27;20051;-88
2022/10/09 07:18:37;;;;;;;6.22;4.88;;;;;;;6.55;81.19;99039.00;5129154;27;20082;-90
2022/10/09 07:21:05;;;;;;;6.40;4.60;;;;;;;6.47;81.52;99044.13;5148918;27;20046;-89
2022/10/09 07:23:32;;;;;;;7.55;4.93;;;;;;;6.57;81.27;99046.66;5134378;27;20032;-90
2022/10/09 07:26:00;;;;;;;6.65;5.43;;;;;;;6.66;81.50;99041.38;5124614;27;20031;-89
2022/10/09 07:28:28;;;;;;;9.73;5.45;;;;;;;6.67;81.04;99042.19;5138357;27;20113;-89
2022/10/09 07:30:55;;;;;;;15.88;5.38;;;;;;;6.53;80.82;99046.13;5140590;27;20073;-88
2022/10/09 07:33:21;;;;;;;12.55;5.47;;;;;;;6.58;81.81;99051.72;5134949;27;20614;-90
2022/10/09 07:35:56;;;;;;;10.10;5.40;;;;;;;6.63;81.99;99046.88;5138189;27;20035;-89
2022/10/09 07:38:23;;;;;;;5.30;4.35;;;;;;;6.58;82.84;99046.50;5148141;27;20059;-90
2022/10/09 07:40:52;;;;;;;9.80;7.53;;;;;;;6.69;82.73;99051.47;5139206;27;20043;-92
2022/10/09 07:43:20;;;;;;;7.03;5.70;;;;;;;6.69;83.25;99048.88;5135990;27;20027;-90
2022/10/09 07:45:46;;;;;;;7.15;5.47;;;;;;;6.70;83.04;99053.09;5149975;27;20482;-89
2022/10/09 07:48:12;;;;;;;6.65;5.18;;;;;;;6.68;84.09;99047.25;5148983;27;20035;-91
2022/10/09 07:50:38;;;;;;;5.82;5.15;;;;;;;7.01;83.63;99050.06;5149958;27;20059;-90
2022/10/09 07:53:04;;;;;;;7.18;5.35;;;;;;;7.40;82.41;99040.03;5140915;27;20466;-91
2022/10/09 07:55:29;;;;;;;7.10;5.45;;;;;;;7.44;81.82;99030.09;5149343;27;20047;-91
2022/10/09 07:57:55;;;;;;;6.60;5.38;;;;;;;7.73;81.55;99035.72;5147121;27;20031;-91
2022/10/09 08:00:20;;;;;;;7.90;5.80;;;;;;;7.82;80.82;99041.00;5130886;27;20034;-90
2022/10/09 08:02:46;;;;;;;7.10;5.90;;;;;;;7.79;80.64;99039.50;5133310;27;20036;-91
2022/10/09 08:05:12;;;;;;;7.57;5.95;;;;;;;7.77;79.81;99028.41;5141250;27;20027;-90
2022/10/09 08:07:37;;;;;;;6.57;5.55;;;;;;;7.83;80.27;99032.19;5152822;27;20118;-90
2022/10/09 08:10:04;;;;;;;7.13;5.57;;;;;;;7.99;80.86;99024.38;5129230;27;20110;-90
2022/10/09 08:12:30;;;;;;;6.90;5.65;;;;;;;8.12;80.74;99029.16;5142314;27;20055;-82
2022/10/09 08:14:55;;;;;;;6.72;6.00;;;;;;;8.30;80.95;99025.41;5138904;27;20566;-82
2022/10/09 08:17:21;;;;;;;6.88;5.72;;;;;;;8.70;80.88;99034.28;5138603;27;20126;-82
2022/10/09 08:19:46;;;;;;;7.30;5.97;;;;;;;9.10;80.17;99033.38;5137043;27;20031;-83
2022/10/09 08:22:12;;;;;;;7.28;5.80;;;;;;;9.42;79.75;99023.00;5136862;27;20052;-83
2022/10/09 08:24:38;;;;;;;6.82;6.15;;;;;;;9.65;77.55;99022.09;5127858;27;20039;-83
2022/10/09 08:27:04;;;;;;;7.32;6.38;;;;;;;9.82;77.88;99019.38;5128133;27;20077;-90
2022/10/09 08:29:30;;;;;;;6.10;5.13;;;;;;;9.47;76.62;99026.72;5133356;27;20039;-90
2022/10/09 08:31:55;;;;;;;7.43;5.65;;;;;;;9.38;77.99;99010.25;5123875;27;20075;-89
2022/10/09 08:34:24;;;;;;;6.45;5.75;;;;;;;9.33;79.66;99016.97;5127146;27;20031;-82
2022/10/09 08:36:50;;;;;;;7.22;5.93;;;;;;;9.36;79.04;99009.59;5127908;27;20039;-82
2022/10/09 08:39:16;;;;;;;7.10;6.10;;;;;;;9.35;79.39;98997.47;5125170;27;20038;-82
2022/10/09 08:41:47;;;;;;;8.07;6.18;;;;;;;9.51;80.22;99006.25;5125736;27;20036;-82
2022/10/09 08:44:44;;;;;;;11.98;6.15;;;;;;;9.77;79.77;99001.53;5123427;27;20039;-82
2022/10/09 08:47:42;;;;;;;6.45;5.63;;;;;;;9.92;78.80;99005.06;5133235;27;20051;-82
2022/10/09 08:50:32;;;;;;;7.30;5.47;;;;;;;10.09;79.31;99005.78;5123076;27;20041;-82
2022/10/09 08:53:02;;;;;;;6.45;5.28;;;;;;;10.26;79.47;98997.84;5124552;27;20027;-82
2022/10/09 08:55:38;;;;;;;6.95;5.75;;;;;;;10.54;79.18;98998.09;5123514;27;20505;-83
2022/10/09 08:58:14;;;;;;;7.50;5.72;;;;;;;10.86;79.34;98997.81;5118576;27;20038;-83
2022/10/09 09:00:54;;;;;;;6.55;5.40;;;;;;;11.05;78.39;98990.41;5124661;27;20042;-82
2022/10/09 09:03:44;;;;;;;6.20;4.97;;;;;;;11.48;78.68;98988.75;5125634;27;20055;-82
2022/10/09 09:06:39;;;;;;;8.93;5.73;;;;;;;11.66;77.01;98983.09;5124186;27;20497;-82
2022/10/09 09:09:22;;;;;;;4.55;2.90;;;;;;;12.07;71.09;98978.13;5123597;27;20035;-84
2022/10/09 09:12:46;;;;;;;4.80;2.40;;;;;;;12.43;68.17;98975.41;5128719;27;20055;-83
2022/10/09 09:16:05;;;;;;;4.05;2.45;;;;;;;12.78;65.32;98972.84;5108639;27;20133;-84
2022/10/09 09:18:40;;;;;;;4.28;2.70;;;;;;;13.04;65.36;98973.00;5119097;27;20457;-83
2022/10/09 09:21:38;;;;;;;3.63;2.03;;;;;;;13.28;64.71;98957.75;5122493;27;20046;-83
2022/10/09 09:24:15;;;;;;;4.53;2.42;;;;;;;13.43;62.48;98966.31;5124190;27;20042;-82
2022/10/09 09:26:46;;;;;;;2.47;2.20;;;;;;;13.67;62.85;98967.63;5122465;27;20031;-83
2022/10/09 09:29:20;;;;;;;3.50;2.40;;;;;;;13.80;61.71;98961.59;5125402;27;20039;-83
2022/10/09 09:31:56;;;;;;;2.47;1.70;;;;;;;13.75;59.88;98959.56;5123419;27;20042;-83
2022/10/09 09:34:35;;;;;;;4.45;2.22;;;;;;;13.97;61.48;98968.09;5120173;27;20034;-83
2022/10/09 09:37:02;;;;;;;4.72;2.30;;;;;;;14.06;59.03;98953.72;5122639;27;20090;-83
2022/10/09 09:39:33;;;;;;;3.72;2.00;;;;;;;14.30;59.10;98959.44;5121434;27;20039;-84
2022/10/09 09:42:09;;;;;;;3.42;1.95;;;;;;;14.31;56.94;98964.50;5120561;27;20079;-84
2022/10/09 09:44:54;;;;;;;5.72;2.33;;;;;;;14.56;58.57;98951.53;5124857;27;20137;-84
2022/10/09 09:47:34;;;;;;;4.97;2.10;;;;;;;14.55;57.83;98954.38;5124709;27;20035;-82
2022/10/09 09:50:04;;;;;;;3.35;1.70;;;;;;;14.52;58.18;98950.34;5116431;27;20116;-83
2022/10/09 09:52:38;;;;;;;4.00;2.08;;;;;;;14.53;58.57;98941.41;5120348;27;20031;-85
2022/10/09 09:55:05;;;;;;;2.65;1.88;;;;;;;14.60;59.53;98946.66;5120242;27;20047;-84
2022/10/09 09:57:38;;;;;;;1.95;1.70;;;;;;;14.64;56.41;98947.91;5122120;27;20031;-84
2022/10/09 10:00:22;;;;;;;3.25;1.90;;;;;;;14.68;57.06;98949.91;5121873;27;20080;-84
2022/10/09 10:02:49;;;;;;;3.17;2.00;;;;;;;14.75;57.32;98949.88;5117541;27;20062;-85
2022/10/09 10:05:23;;;;;;;2.17;1.77;;;;;;;14.80;54.42;98946.63;5119850;27;20722;-84
2022/10/09 10:07:50;;;;;;;29.63;23.10;;;;;;;14.85;55.31;98931.00;5122430;27;20045;-85
2022/10/09 10:10:22;;;;;;;4.28;1.75;;;;;;;14.91;51.79;98927.53;5124885;27;20367;-83
2022/10/09 10:12:50;;;;;;;2.22;1.60;;;;;;;14.99;52.23;98935.22;5125554;27;20042;-85
2022/10/09 10:15:30;;;;;;;4.22;2.38;;;;;;;15.04;52.34;98935.41;5123881;27;20034;-84
2022/10/09 10:18:02;;;;;;;2.37;1.70;;;;;;;15.06;51.68;98920.19;5125986;27;20483;-83
2022/10/09 10:20:31;;;;;;;4.05;1.70;;;;;;;14.93;51.94;98917.53;5125463;27;20179;-85
2022/10/09 10:22:59;;;;;;;3.10;1.50;;;;;;;14.97;51.86;98905.56;5122886;27;20027;-85
2022/10/09 10:25:34;;;;;;;1.90;1.70;;;;;;;15.17;51.80;98922.19;5119277;27;20035;-85
2022/10/09 10:28:12;;;;;;;2.42;1.58;;;;;;;15.26;50.11;98910.34;5122130;27;20038;-84
2022/10/09 10:30:39;;;;;;;1.40;1.30;;;;;;;15.26;50.43;98917.44;5115780;27;20486;-83
2022/10/09 10:33:30;;;;;;;3.97;2.05;;;;;;;15.33;51.62;98905.00;5101598;28;20027;-85
2022/10/09 10:35:58;;;;;;;5.38;1.75;;;;;;;15.53;50.50;98896.97;5119891;27;20039;-85
2022/10/09 10:39:07;;;;;;;2.88;1.50;;;;;;;15.57;50.26;98894.72;5119872;27;20384;-84
2022/10/09 10:41:46;;;;;;;1.60;1.50;;;;;;;15.29;47.77;98893.22;5125405;27;20047;-89
2022/10/09 10:44:27;;;;;;;3.92;1.60;;;;;;;15.55;48.63;98896.78;5132777;27;20043;-90
2022/10/09 10:47:05;;;;;;;1.95;1.58;;;;;;;15.62;48.28;98882.53;5125808;27;20124;-88
2022/10/09 10:49:31;;;;;;;3.67;1.52;;;;;;;15.61;47.00;98882.72;5114619;27;20549;-91
2022/10/09 10:52:31;;;;;;;2.88;1.80;;;;;;;15.65;48.21;98882.13;5121426;27;20503;-91
2022/10/09 10:55:03;;;;;;;3.40;1.70;;;;;;;15.61;47.10;98872.94;5112738;27;20035;-87
2022/10/09 10:58:00;;;;;;;1.83;1.38;;;;;;;15.85;47.57;98866.13;5115775;27;20355;-88
2022/10/09 11:00:27;;;;;;;4.05;2.05;;;;;;;15.84;45.90;98869.78;5114263;27;20139;-87
2022/10/09 11:03:40;;;;;;;2.28;1.42;;;;;;;15.86;46.09;98862.44;5117132;27;20023;-87
2022/10/09 11:06:30;;;;;;;3.08;1.80;;;;;;;15.87;44.98;98855.31;5043549;28;20033;-88
2022/10/09 11:09:19;;;;;;;3.47;1.70;;;;;;;15.91;45.65;98861.78;5047898;28;20063;-91
2022/10/09 11:12:05;;;;;;;6.30;3.47;;;;;;;15.91;45.68;98856.50;5104784;28;20055;-87
2022/10/09 11:15:03;;;;;;;4.60;2.72;;;;;;;15.99;47.31;98846.44;5120789;28;20395;-91
2022/10/09 11:17:50;;;;;;;2.42;1.70;;;;;;;16.06;45.70;98843.75;5116431;28;20042;-90
2022/10/09 11:20:57;;;;;;;4.50;2.88;;;;;;;16.13;46.64;98846.34;5122987;27;20115;-89
2022/10/09 11:23:33;;;;;;;5.03;2.55;;;;;;;16.20;46.29;98841.81;5100568;28;20089;-88
2022/10/09 11:26:07;;;;;;;4.93;3.05;;;;;;;16.31;45.55;98843.72;5117377;27;20027;-88
2022/10/09 11:28:52;;;;;;;5.20;2.95;;;;;;;16.23;46.26;98813.06;5123594;28;20115;-88
2022/10/09 11:31:27;;;;;;;3.10;1.83;;;;;;;16.30;45.41;98827.03;5111299;28;20088;-89
2022/10/09 11:34:06;;;;;;;3.85;2.47;;;;;;;16.39;46.28;98813.53;5112206;28;20038;-93
2022/10/09 11:36:40;;;;;;;1.85;1.70;;;;;;;16.22;45.21;98798.22;5125766;28;20046;-90
2022/10/09 11:39:17;;;;;;;2.53;1.88;;;;;;;16.26;45.50;98815.28;5119086;27;20378;-84
2022/10/09 11:41:47;;;;;;;1.83;1.73;;;;;;;16.20;46.42;98824.09;5114918;28;20031;-84
2022/10/09 11:44:43;;;;;;;2.83;1.77;;;;;;;16.31;46.80;98812.81;5117456;28;20039;-85
2022/10/09 11:47:34;;;;;;;2.85;1.70;;;;;;;16.31;45.96;98804.84;5117276;28;20028;-84
2022/10/09 11:50:47;;;;;;;2.53;1.63;;;;;;;16.26;47.06;98788.00;5115618;28;20027;-85
2022/10/09 11:53:21;;;;;;;4.63;2.00;;;;;;;16.47;46.55;98800.00;5051309;27;20043;-85
2022/10/09 11:55:47;;;;;;;2.08;1.55;;;;;;;16.51;46.71;98794.06;5088048;27;133282;-84
2022/10/09 11:58:23;;;;;;;3.75;1.88;;;;;;;16.42;46.66;98781.31;5101322;28;20112;-84
2022/10/09 12:00:54;;;;;;;3.78;1.90;;;;;;;16.43;45.80;98777.63;5103532;28;20463;-86
2022/10/09 12:03:36;;;;;;;2.75;1.80;;;;;;;16.42;45.48;98776.03;5102789;28;20027;-84
2022/10/09 12:06:16;;;;;;;3.28;1.65;;;;;;;16.64;47.14;98774.56;5104638;28;20475;-85
2022/10/09 12:09:02;;;;;;;3.72;1.80;;;;;;;16.67;46.65;98768.00;5102786;28;20047;-85